Weather observations for the past three days for
Hebbronville, Jim Hogg County Airport
Imperial (Metric)
Date Time (cdt) Wind (mph) Vis. (mi.) Weather Sky Cond. Temperature (ºF) Relative Humidity Wind Chill (°F) Heat Index (°F) Pressure Precipitation (in)
Air Dwpt 6 hour altimeter (in) sea level (mb) 1 hr 3 hr 6 hr
Max. Min.
03 15:15 Calm 10.00 Fair CLR 103.1 60.6 25% 104 29.79 0.0
03 14:55 S 12 10.00 Fair CLR 102.4 65.7 30% 107 29.8 0.0
03 14:35 SE 8 9.00 A Few Clouds FEW360 100.9 66.4 33% 106 29.81 0.0
03 14:15 E 8 9.00 Fair CLR 100.4 67.6 35% 106 29.82 0.0
03 13:55 SE 3 G 18 10.00 A Few Clouds FEW350 99 69.6 39% 106 29.83 0.0
03 13:35 Vrbl 6 10.00 A Few Clouds FEW330 98.4 69.8 40% 105 29.84 0.0
03 13:15 Vrbl 6 10.00 A Few Clouds FEW330 98.4 71.1 41% 107 29.85 0.0
03 12:55 S 10 10.00 Fair CLR 97 71.6 97.5 77.4 44% 106 29.86 0.0
03 12:35 S 9 G 17 9.00 Fair CLR 96.4 72 45% 105 29.87 0.0
03 12:15 S 13 G 18 10.00 Fair CLR 95.5 72.9 48% 105 29.88 0.0
03 11:55 S 12 10.00 Fair CLR 94.3 75.2 54% 106 29.9 0.0
03 11:35 SE 9 10.00 Fair CLR 93 75.4 57% 105 29.9 0.0
03 11:15 S 8 10.00 Fair CLR 91.8 76.1 60% 104 29.9 0.0
03 10:55 S 13 10.00 Fair CLR 90.3 77.4 66% 104 29.9 0.0
03 10:35 SE 15 G 20 9.00 Fair CLR 89.4 77.7 69% 103 29.9 0.0
03 10:15 SE 10 10.00 Fair CLR 87.6 78.1 73% 101 29.9 0.0
03 09:55 S 13 10.00 Fair CLR 86 78.6 79% 99 29.91 0.0
03 09:35 SE 10 G 17 9.00 Fair CLR 84.6 78.8 83% 97 29.91 0.0
03 09:15 S 13 9.00 Fair CLR 83.5 78.4 85% 94 29.91 0.0
03 08:55 SE 10 10.00 Fair CLR 82 78.8 90% 92 29.91 0.0
03 08:35 S 9 9.00 Fair CLR 80.6 78.6 94% 88 29.91 0.0
03 08:15 S 8 9.00 Fair CLR 79.3 78.3 97% 85 29.91 0.0
03 07:55 SE 6 10.00 Fair CLR 77.9 77.9 100% 80 29.9 0.0
03 07:35 SE 5 9.00 Fair CLR 77.4 77.4 100% 79 29.9 0.0
03 07:15 SE 8 10.00 Fair CLR 77.5 77.5 100% 79 29.89 0.0
03 06:55 SE 6 10.00 Fair CLR 77.9 77.7 82.8 77.9 99% 80 29.89 0.0
03 06:35 SE 6 10.00 Fair CLR 78.3 77.7 98% 81 29.89 0.0
03 06:15 SE 6 10.00 Fair CLR 78.8 77.9 97% 83 29.9 0.0
03 05:55 SE 7 10.00 Fair CLR 79.5 77.9 95% 85 29.9 0.0
03 05:35 SE 8 10.00 Fair CLR 79.9 77.9 94% 86 29.9 0.0
03 05:15 S 8 10.00 Fair CLR 80.4 78.1 93% 87 29.89 0.0
03 04:55 S 12 10.00 Fair CLR 80.8 78.3 92% 88 29.9 0.0
03 04:35 S 10 10.00 Fair CLR 81 78.4 92% 89 29.9 0.0
03 04:15 S 8 10.00 Fair CLR 81.1 78.4 92% 89 29.9 0.0
03 03:55 S 9 10.00 Fair CLR 81.1 78.6 92% 89 29.9 0.0
03 03:35 S 7 10.00 Fair CLR 81.1 79 93% 90 29.9 0.0
03 03:15 S 8 10.00 Fair CLR 81.5 79 92% 90 29.9 0.0
03 02:55 S 9 10.00 Fair CLR 82 79.2 91% 92 29.91 0.0
03 02:35 S 10 10.00 Fair CLR 82 79.2 91% 92 29.91 0.0
03 02:15 S 9 10.00 Fair CLR 81.9 79 91% 91 29.91 0.0
03 01:55 S 13 10.00 Fair CLR 82 79 90% 92 29.91 0.0
03 01:35 S 14 G 20 10.00 Fair CLR 82.2 78.8 89% 92 29.91 0.0
03 01:15 S 12 10.00 Fair CLR 82.6 78.6 88% 93 29.91 0.0
03 00:55 S 15 G 21 10.00 Fair CLR 82.9 78.6 101.1 82.9 87% 93 29.91 0.0
03 00:35 S 14 G 21 10.00 Fair CLR 83.3 78.6 86% 94 29.91 0.0
03 00:15 S 15 G 22 10.00 Fair CLR 84 78.6 84% 96 29.91 0.0
02 23:55 S 18 G 26 10.00 Fair CLR 85.1 78.6 81% 98 29.9 0.0
02 23:35 S 15 10.00 Fair CLR 86 77.5 76% 98 29.9 0.0
02 23:15 SE 12 G 20 10.00 Fair CLR 86.9 76.6 72% 98 29.9 0.0
02 22:55 SE 16 G 23 10.00 Fair CLR 88.3 75.2 65% 98 29.9 0.0
02 22:35 SE 8 G 22 10.00 Fair CLR 89.1 73.6 60% 98 29.89 0.0
02 22:15 SE 9 10.00 Fair CLR 88.7 76.5 67% 101 29.88 0.0
02 21:55 SE 13 10.00 Fair CLR 89.2 77.9 69% 103 29.87 0.0
02 21:35 SE 10 10.00 Fair CLR 90 77.5 67% 104 29.86 0.0
02 21:15 SE 12 10.00 Fair CLR 91 77 64% 105 29.85 0.0
02 20:55 SE 14 G 23 10.00 Fair CLR 92.1 76.5 60% 105 29.83 0.0
02 20:35 SE 16 10.00 Fair CLR 92.8 76.6 59% 106 29.83 0.0
02 20:15 SE 13 G 24 10.00 Fair CLR 93.9 75.4 55% 106 29.82 0.0
02 19:55 E 20 G 23 10.00 Fair CLR 96.6 73.9 48% 108 29.81 0.0
02 19:35 S 8 10.00 Fair CLR 99.3 61.5 29% 100 29.81 0.0
02 19:15 S 8 10.00 Fair CLR 100.4 61.3 28% 102 29.81 0.0
02 18:55 SE 10 9.00 Fair CLR 101.5 61.3 104.9 98.2 27% 103 29.81 0.0
02 18:35 SE 10 9.00 Fair CLR 102 60.8 26% 103 29.81 0.0
02 18:15 S 14 9.00 Fair CLR 103.1 61.2 25% 105 29.81 0.0
02 17:55 S 8 10.00 Fair CLR 103.3 59.5 24% 104 29.81 0.0
02 17:35 SE 9 10.00 Fair CLR 104 59.4 23% 105 29.81 0.0
02 17:15 S 7 10.00 Fair CLR 103.5 59.4 23% 104 29.82 0.0
02 16:55 S 9 G 17 10.00 Fair CLR 104.7 59.5 23% 106 29.82 0.0
02 16:35 Vrbl 5 10.00 Fair CLR 103.6 59.4 23% 104 29.82 0.0
02 16:15 Vrbl 3 10.00 Fair CLR 102.2 59.5 25% 103 29.83 0.0
02 15:55 E 12 10.00 Fair CLR 102.9 60.8 25% 104 29.84 0.0
02 15:35 E 12 G 18 9.00 Fair CLR 102.6 62.1 27% 105 29.85 0.0
02 15:15 Vrbl 7 10.00 A Few Clouds FEW360 102 61.9 27% 104 29.85 0.0
02 14:55 SE 8 10.00 Fair CLR 101.7 61.9 27% 103 29.87 0.0
02 14:35 E 8 10.00 Fair CLR 102 62.6 28% 104 29.88 0.0
02 14:15 E 8 10.00 Fair CLR 100.6 61.5 28% 102 29.88 0.0
02 13:55 S 9 10.00 Fair CLR 100 60.6 27% 101 29.9 0.0
02 13:35 Vrbl 7 10.00 Fair CLR 100.2 64 31% 103 29.91 0.0
02 13:15 SE 10 10.00 Fair CLR 100 60.4 27% 101 29.92 0.0
02 12:55 S 9 10.00 Fair CLR 98.1 67.3 98.8 75.7 37% 103 29.93 0.0
02 12:35 S 10 10.00 Fair CLR 96.4 68.9 41% 102 29.94 0.0
02 12:15 SE 10 10.00 Fair CLR 96.8 72.3 45% 106 29.94 0.0
02 11:55 Vrbl 6 10.00 Fair CLR 94.1 74.1 52% 105 29.95 0.0
02 11:35 S 10 9.00 Fair CLR 94.3 74.1 52% 105 29.96 0.0
02 11:15 S 8 10.00 Fair CLR 92.5 74.8 56% 104 29.96 0.0
02 10:55 S 13 10.00 Fair CLR 91 75.2 60% 102 29.97 0.0
02 10:35 S 13 10.00 Fair CLR 89.8 75.7 63% 101 29.96 0.0
02 10:15 S 12 10.00 Fair CLR 88.5 76.5 68% 100 29.96 0.0
02 09:55 S 12 10.00 Fair CLR 86.4 77 74% 98 29.97 0.0
02 09:35 S 10 10.00 Fair CLR 85.5 77.4 77% 97 29.96 0.0
02 09:15 S 12 10.00 Fair CLR 83.5 78.3 84% 94 29.96 0.0
02 08:55 S 12 G 17 10.00 Fair CLR 81.5 78.6 91% 90 29.96 0.0
02 08:35 S 7 10.00 Fair CLR 79 78.3 98% 84 29.96 0.0
02 08:15 Calm 10.00 Fair CLR 77 77 100% 78 29.96 0.0
02 07:55 S 3 9.00 Fair CLR 75.9 75.9 100% 75 29.95 0.0
02 07:35 SE 5 10.00 Fair CLR 75.7 75.7 100% 74 29.95 0.0
02 07:15 SE 5 10.00 Fair CLR 75.9 75.9 100% 75 29.95 0.0
02 06:55 SE 5 10.00 Fair CLR 76.3 76.3 81.5 76.3 100% 76 29.94 0.0
02 06:35 SE 6 9.00 Fair CLR 76.3 76.3 100% 76 29.94 0.0
02 06:15 SE 6 9.00 Fair CLR 76.5 76.5 100% 76 29.94 0.0
02 05:55 SE 5 9.00 Fair CLR 76.5 76.5 100% 76 29.94 0.0
02 05:35 S 5 9.00 Fair CLR 76.6 76.6 100% 77 29.94 0.0
02 05:15 SE 5 10.00 Fair CLR 76.8 76.8 100% 77 29.94 0.0
02 04:55 S 5 9.00 Fair CLR 77.4 77.4 100% 79 29.94 0.0
02 04:35 S 3 10.00 Fair CLR 77.5 77.5 100% 79 29.94 0.0
02 04:15 S 5 10.00 Fair CLR 78.1 77.9 99% 81 29.94 0.0
02 03:55 S 5 10.00 Fair CLR 78.8 77.9 97% 83 29.94 0.0
02 03:35 S 5 10.00 Fair CLR 79.2 77.9 96% 84 29.95 0.0
02 03:15 S 7 10.00 Fair CLR 79.7 78.1 95% 85 29.95 0.0
02 02:55 S 8 10.00 Fair CLR 80.2 78.1 93% 87 29.95 0.0
02 02:35 S 9 10.00 Fair CLR 80.4 78.3 93% 87 29.95 0.0
02 02:15 S 8 10.00 Fair CLR 80.6 78.1 92% 88 29.95 0.0
02 01:55 S 10 10.00 Fair CLR 81 77.7 90% 88 29.95 0.0
02 01:35 S 12 10.00 Fair CLR 81.1 78.1 90% 89 29.96 0.0
02 01:15 S 9 10.00 Fair CLR 81.3 78.1 90% 89 29.95 0.0
02 00:55 SE 8 10.00 Fair CLR 81.7 78.1 96.4 81.7 89% 90 29.95 0.0
02 00:35 SE 15 10.00 Fair CLR 82 78.4 89% 91 29.95 0.0
02 00:15 SE 13 10.00 Fair CLR 82.4 78.1 87% 92 29.95 0.0
01 23:55 SE 12 G 17 10.00 Fair CLR 82.9 77.7 84% 93 29.95 0.0
01 23:35 SE 9 10.00 Fair CLR 83.3 77 81% 93 29.95 0.0
01 23:15 SE 10 10.00 Fair CLR 83.8 75.4 76% 92 29.95 0.0
01 22:55 SE 9 10.00 Fair CLR 84.2 73.2 70% 91 29.95 0.0
01 22:35 SE 9 10.00 Fair CLR 84.6 72.9 68% 91 29.94 0.0
01 22:15 SE 10 10.00 Fair CLR 85.1 73.4 68% 92 29.94 0.0
01 21:55 SE 15 10.00 Fair CLR 85.6 74.8 70% 94 29.92 0.0
01 21:35 SE 16 10.00 Fair CLR 86.2 74.8 69% 95 29.91 0.0
01 21:15 SE 12 10.00 Fair CLR 87.1 74.7 67% 96 29.9 0.0
01 20:55 E 12 10.00 Fair CLR 88.5 73.2 61% 97 29.89 0.0
01 20:35 SE 14 G 23 10.00 Fair CLR 88.9 73.2 60% 97 29.88 0.0
01 20:15 SE 17 10.00 Fair CLR 90.1 74.1 59% 100 29.88 0.0
01 19:55 E 17 10.00 Fair CLR 91.8 73.9 56% 102 29.87 0.0
01 19:35 E 20 10.00 Fair CLR 93 73.6 53% 103 29.87 0.0
01 19:15 E 20 G 25 10.00 Fair CLR 94.6 73.6 51% 105 29.86 0.0
01 18:55 E 21 G 25 10.00 Fair and Breezy CLR 97.9 72.1 102.7 96.4 44% 107 29.85 0.0
01 18:35 SE 9 10.00 Fair CLR 101.8 58.3 24% 102 29.85 0.0
01 18:15 Vrbl 5 10.00 Fair CLR 101.3 57.6 23% 101 29.84 0.0
01 17:55 SE 10 10.00 Fair CLR 101.3 57.4 23% 101 29.84 0.0
01 17:35 SE 8 10.00 Fair CLR 100.9 57.2 23% 100 29.84 0.0
01 17:15 SE 10 10.00 Fair CLR 102.2 58.1 23% 102 29.84 0.0
01 16:55 E 9 10.00 Fair CLR 102.2 57.9 23% 102 29.85 0.0
01 16:35 SE 9 10.00 Fair CLR 102 56.7 22% 101 29.85 0.0
01 16:15 Vrbl 7 10.00 Fair CLR 102 57.2 23% 101 29.85 0.0
01 15:55 Vrbl 5 10.00 Fair CLR 100.9 57.2 23% 100 29.87 0.0
01 15:35 SE 10 10.00 Fair CLR 101.3 57 23% 101 29.88 0.0
01 15:15 SE 8 10.00 Fair CLR 100.4 57.9 24% 100 29.89 0.0
01 14:55 SE 7 10.00 Fair CLR 99.5 59.2 26% 100 29.9 0.0
01 14:35 E 12 10.00 Fair CLR 100.2 60.4 27% 101 29.91 0.0
01 14:15 Vrbl 7 10.00 Fair CLR 99.3 59.4 27% 99 29.91 0.0
01 13:55 Vrbl 7 10.00 A Few Clouds FEW360 98.4 61 29% 99 29.92 0.0
01 13:35 SE 10 10.00 A Few Clouds FEW350 98.4 61.3 29% 99 29.93 0.0
01 13:15 SE 8 10.00 A Few Clouds FEW350 97.7 61.9 31% 99 29.94 0.0
01 12:55 E 7 10.00 Fair CLR 95.9 63.9 96.6 73 35% 98 29.95 0.0
01 12:35 E 9 10.00 Fair CLR 95.7 66.6 38% 99 29.96 0.0
01 12:15 SE 9 10.00 Fair CLR 94.3 66.9 41% 98 29.97 0.0
01 11:55 Vrbl 6 10.00 Fair CLR 91.8 68.9 47% 97 29.97 0.0
01 11:35 S 12 10.00 Fair CLR 91.6 69.8 49% 97 29.98 0.0
01 11:15 S 7 10.00 Fair CLR 90.3 72.7 56% 98 29.98 0.0
01 10:55 S 9 10.00 Fair CLR 88.5 74.7 64% 98 29.97 0.0
01 10:35 S 9 10.00 Fair CLR 86.7 75.7 70% 97 29.97 0.0
01 10:15 Vrbl 7 10.00 Fair CLR 85.5 76.3 74% 95 29.97 0.0
01 09:55 S 10 10.00 Fair CLR 83.3 76.8 81% 92 29.98 0.0
01 09:35 Vrbl 7 10.00 Fair CLR 82.2 77.9 87% 91 29.98 0.0
01 09:15 SE 7 10.00 Fair CLR 79.9 78.1 94% 86 29.98 0.0
01 08:55 SE 6 5.00 Fog/Mist CLR 78.8 78.1 98% 83 29.98 0.0
01 08:35 E 7 4.00 Fog/Mist CLR 76.8 76.8 100% 77 29.97 0.0
01 08:15 E 6 5.00 Fog/Mist CLR 75.2 75.2 100% 73 29.96 0.0
01 07:55 E 5 3.00 Fog/Mist CLR 73.8 73.8 100% 29.96 0.0
01 07:35 E 3 6.00 Fog/Mist CLR 73.2 73.2 100% 29.96 0.0
01 07:15 Calm 6.00 Fog/Mist CLR 73.4 73.4 100% 29.95 0.0
01 06:55 E 3 6.00 Fog/Mist CLR 73.4 73.4 80.2 73.2 100% 29.95 0.0
01 06:35 E 3 7.00 Fair CLR 73.4 73.4 100% 29.95 0.0
01 06:15 Calm 9.00 Fair CLR 74.3 74.3 100% 29.95 0.0
01 05:55 E 3 9.00 Fair CLR 74.1 74.1 100% 29.94 0.0
01 05:35 E 6 9.00 Fair CLR 74.1 74.1 100% 29.94 0.0
01 05:15 Calm 10.00 Fair CLR 74.8 74.8 100% 29.95 0.0
01 04:55 SE 5 10.00 Fair CLR 76.1 76.1 100% 75 29.94 0.0
01 04:35 SE 5 10.00 Fair CLR 75.7 75.7 100% 74 29.94 0.0
01 04:15 SE 6 10.00 Fair CLR 76.1 76.1 100% 75 29.94 0.0
01 03:55 S 5 10.00 Fair CLR 76.5 76.1 99% 76 29.95 0.0
01 03:35 S 5 10.00 Fair CLR 77 76.3 98% 78 29.95 0.0
01 03:15 S 6 10.00 Fair CLR 77.5 76.3 96% 79 29.95 0.0
01 02:55 SE 7 10.00 Fair CLR 78.1 76.5 95% 81 29.95 0.0
01 02:35 S 8 10.00 Fair CLR 78.3 76.5 94% 81 29.95 0.0
01 02:15 SE 8 10.00 Fair CLR 78.6 76.6 94% 82 29.96 0.0
01 01:55 SE 7 10.00 Fair CLR 79.2 76.6 92% 84 29.96 0.0
01 01:35 SE 7 10.00 Fair CLR 79.5 76.6 91% 84 29.96 0.0
01 01:15 SE 9 10.00 Fair CLR 79.9 76.6 90% 85 29.96 0.0
01 00:55 SE 9 10.00 Fair CLR 80.4 76.8 94.3 80.4 89% 87 29.96 0.0
01 00:35 SE 9 10.00 Fair CLR 80.6 76.6 88% 87 29.97 0.0
01 00:15 SE 12 10.00 Fair CLR 81.1 76.8 87% 88 29.97 0.0
31 23:55 SE 10 G 18 10.00 Fair CLR 81.7 76.8 85% 89 29.97 0.0
31 23:35 SE 13 10.00 Fair CLR 82 76.6 84% 90 29.97 0.0
31 23:15 SE 10 G 20 10.00 Fair CLR 82.4 76.5 82% 90 29.97 0.0
31 22:55 SE 15 10.00 Fair CLR 83.3 75.6 78% 91 29.96 0.0
31 22:35 SE 15 10.00 Fair CLR 83.8 75.9 77% 93 29.96 0.0
31 22:15 SE 15 10.00 Fair CLR 84.4 76.3 77% 94 29.95 0.0
31 21:55 SE 13 10.00 Fair CLR 85.1 75.6 73% 94 29.94 0.0
31 21:35 E 12 10.00 Fair CLR 85.6 74.7 70% 94 29.93 0.0
31 21:15 E 16 10.00 Fair CLR 86.4 73.6 66% 94 29.92 0.0
31 20:55 E 13 10.00 Fair CLR 87.6 72.9 62% 95 29.91 0.0
31 20:35 E 16 10.00 Fair CLR 88 73 61% 96 29.9 0.0
31 20:15 E 18 G 24 10.00 Fair CLR 89.2 72.9 59% 97 29.89 0.0
31 19:55 E 16 G 26 10.00 Fair CLR 90.9 73 56% 99 29.88 0.0
31 19:35 E 22 10.00 Fair and Breezy CLR 91.6 73.2 55% 100 29.87 0.0
31 19:15 E 20 G 28 10.00 Fair CLR 93.4 73 52% 103 29.86 0.0
31 18:55 E 21 G 28 10.00 Fair and Breezy CLR 95 72.7 103.1 95 49% 104 29.85 0.0
31 18:35 E 23 G 28 10.00 Fair and Breezy CLR 96.1 72.5 47% 105 29.85 0.0
31 18:15 E 15 G 25 10.00 Fair CLR 97 71.1 43% 105 29.85 0.0
31 17:55 E 16 G 21 10.00 Fair CLR 101.3 65.8 32% 106 29.84 0.0
31 17:35 E 12 G 21 10.00 Fair CLR 102.4 58.6 24% 102 29.84 0.0
31 17:15 SE 15 G 25 10.00 Fair CLR 102.6 58.6 23% 103 29.85 0.0
31 16:55 SE 13 G 20 10.00 Fair CLR 103.1 58.8 23% 103 29.85 0.0
31 16:35 Vrbl 6 10.00 Fair CLR 100.9 58.8 25% 101 29.85 0.0
31 16:15 SE 13 G 21 10.00 Fair CLR 101.7 59.4 25% 102 29.87 0.0
31 15:55 SE 9 G 17 10.00 A Few Clouds FEW380 101.8 60.3 25% 103 29.88 0.0
31 15:35 S 10 G 20 10.00 A Few Clouds FEW380 100.2 59 26% 100 29.89 0.0
Date Time (cdt) Wind (mph) Vis. (mi.) Weather Sky Cond. Air Dwpt Max. Min. Relative Humidity Wind Chill (°F) Heat Index (°F) altimeter (in) sea level (mb) 1 hr 3 hr 6 hr
6 hour
Temperature (ºF) Pressure Precipitation (in)